aviador You're here:

TLPL Decoded Metar

HEWANDORRA in ST. LUCIA ISLAND
Report Time2018-01-17 20:00:00
UTC Time2018-01-17 20:20:59
Flight Rules vfr VFR
Wind090° at 17 kt
W.Decomp.*RWY 10: 16.9 kt HW 1.5 kt RCW
W.Rank090° ranks 1
Current wind is above 090° avg. (15.4)
Visibility9999 m
Phenomena:N/A
Clouds:Few 026 Hf
Expected CloudBase > 2,000 ft AGL from Temp-Dew spread
CeilingNone
Temp28°C (ISA +13)
Dew Point23°C (74% RH)
Heat Index31.2°C
AAT27.1°C
QNH1013 hPa
Density Alt1,877 ft
Elevation10 ft
Report Wrong Elevation
Raw Report
TLPL 172000Z 09017KT 9999 FEW026 28/23 Q1013 NOSIG=

Extra information for TLPL:More info

Metar Taf Metar & Taf Last 4 Metars F.Rules Stats Wind Profile Meteogram Temp Stats Airport Information Weather charts Add Link Nearby VenuesMetar ALERT Operation Metar Decoded Social comments